This is the latest recevied weather packets stored in our database for station/object OE-11208. If no packets are shown the sender has not sent any weather packets the latest 10 day(s).
| Time | Temp. | Humidity | Pressure | Rain* | Wind** | Luminosity | Snow |
|---|---|---|---|---|---|---|---|
| 1787855122 | 20° C | 80% | 1013.4 hPa | 0 mm | - | 0 W/m² | - |
| 1787854295 | 20.56° C | 80% | 1013 hPa | 0 mm | - | 0 W/m² | - |
| 1787853922 | 21.67° C | 76% | 1012.6 hPa | 0 mm | - | 7 W/m² | - |
| 1787852734 | 22.22° C | 74% | 1012 hPa | 0 mm | - | 27 W/m² | - |
| 1787852121 | 23.33° C | 70% | 1011.6 hPa | 0 mm | - | 34 W/m² | - |
| 1787851522 | 23.33° C | 69% | 1011.7 hPa | 0 mm | - | 40 W/m² | - |
| 1787850695 | 23.89° C | 70% | 1011.4 hPa | 0 mm | - | 47 W/m² | - |
| 1787850322 | 24.44° C | 67% | 1011.2 hPa | 0 mm | - | 61 W/m² | - |
| 1787849722 | 24.44° C | 64% | 1011.1 hPa | 0 mm | - | 67 W/m² | - |
| 1787848895 | 25.56° C | 60% | 1010.9 hPa | 0 mm | - | 74 W/m² | - |
| 1787848522 | 27.22° C | 48% | 1010.5 hPa | 0 mm | - | 108 W/m² | - |
| 1787847922 | 27.22° C | 50% | 1010.5 hPa | 0 mm | - | 155 W/m² | - |
| 1787847095 | 27.22° C | 50% | 1010.4 hPa | 0 mm | - | 161 W/m² | - |
| 1787846722 | 27.22° C | 54% | 1010.4 hPa | 0 mm | - | 175 W/m² | - |
| 1787846122 | 27.22° C | 53% | 1010.4 hPa | 0 mm | - | 202 W/m² | - |
| 1787845294 | 27.78° C | 51% | 1010.1 hPa | 0 mm | - | 269 W/m² | - |
| 1787844922 | 28.33° C | 47% | 1010.1 hPa | 0 mm | - | 336 W/m² | - |
| 1787844322 | 27.78° C | 53% | 1010 hPa | 0 mm | - | 296 W/m² | - |
| 1787843495 | 27.78° C | 55% | 1010.2 hPa | 0 mm | - | 262 W/m² | - |
| 1787843122 | 27.22° C | 55% | 1010.1 hPa | 0 mm | - | 202 W/m² | - |
| 1787842522 | 28.33° C | 53% | 1009.9 hPa | 0 mm | - | 208 W/m² | - |
| 1787841694 | 29.44° C | 51% | 1009.5 hPa | 0 mm | - | 410 W/m² | - |
| 1787841322 | 30° C | 49% | 1009.4 hPa | 0 mm | - | 451 W/m² | - |
| 1787839895 | 29.44° C | 48% | 1009.5 hPa | 0 mm | - | 430 W/m² | - |
| 1787839522 | 30.56° C | 45% | 1009.4 hPa | 0 mm | - | 538 W/m² | - |
* Rain latest hour (hover to see other rain measurements)
** Current wind speed in m/s (hover to see current wind gust speed)